Time;durP1;ratioP1;P1;durP2;ratioP2;P2;SDS_P1;SDS_P2;PMS_P1;PMS_P2;Temp;Humidity;BMP_temperature;BMP_pressure;BME280_temperature;BME280_humidity;BME280_pressure;Samples;Min_cycle;Max_cycle;Signal;HPM_P1;HPM_P2
2024/03/14 00:00:45;;;;;;;49.17;34.13;;;;;22.20;100415.00;;;;2066861;28;20215;-58
2024/03/14 00:01:45;;;;;;;45.10;33.83;;;;;22.20;100414.00;;;;2033885;29;20212;-59
2024/03/14 00:02:46;;;;;;;45.60;32.50;;;;;22.20;100444.00;;;;2043790;28;20213;-59
2024/03/14 00:03:47;;;;;;;49.77;33.67;;;;;22.20;100411.00;;;;2050537;28;20227;-58
2024/03/14 00:04:47;;;;;;;44.43;33.00;;;;;22.20;100409.00;;;;2045563;28;20549;-58
2024/03/14 00:05:49;;;;;;;46.37;31.97;;;;;22.20;100419.00;;;;2060806;28;20469;-59
2024/03/14 00:06:52;;;;;;;42.67;31.55;;;;;22.20;100360.00;;;;2054128;28;20204;-59
2024/03/14 00:08:00;;;;;;;51.17;35.08;;;;;22.20;100409.00;;;;2039713;28;20208;-58
2024/03/14 00:09:02;;;;;;;45.10;32.78;;;;;22.20;100413.00;;;;2052449;28;20295;-58
2024/03/14 00:10:04;;;;;;;45.17;32.35;;;;;22.20;100412.00;;;;2048067;28;20278;-58
2024/03/14 00:11:06;;;;;;;41.97;28.75;;;;;22.20;100420.00;;;;2061209;28;20215;-58
2024/03/14 00:12:06;;;;;;;43.92;31.48;;;;;22.10;100419.00;;;;2058496;28;20281;-58
2024/03/14 00:13:07;;;;;;;45.30;33.40;;;;;22.20;100420.00;;;;2055784;28;20259;-58
2024/03/14 00:14:08;;;;;;;42.10;31.60;;;;;22.20;100427.00;;;;2049503;28;21244;-58
2024/03/14 00:15:11;;;;;;;44.80;32.72;;;;;22.20;100417.00;;;;2040072;28;20238;-58
2024/03/14 00:16:12;;;;;;;44.95;32.40;;;;;22.20;100426.00;;;;2062091;28;20206;-58
2024/03/14 00:17:13;;;;;;;42.28;29.77;;;;;22.20;100418.00;;;;2053053;28;20207;-59
2024/03/14 00:18:14;;;;;;;39.77;28.73;;;;;22.20;100422.00;;;;2057767;28;20656;-59
2024/03/14 00:19:15;;;;;;;43.53;30.45;;;;;22.20;100415.00;;;;2048785;28;20231;-59
2024/03/14 00:20:16;;;;;;;41.53;29.52;;;;;22.20;100425.00;;;;2051371;28;20623;-58
2024/03/14 00:21:16;;;;;;;43.87;30.73;;;;;22.20;100430.00;;;;2040465;28;20290;-58
2024/03/14 00:22:19;;;;;;;40.93;30.57;;;;;22.20;100421.00;;;;2050764;28;20820;-59
2024/03/14 00:23:23;;;;;;;41.47;29.73;;;;;22.20;100428.00;;;;2067584;28;20218;-58
2024/03/14 00:24:23;;;;;;;45.13;29.83;;;;;22.20;100426.00;;;;2058386;28;20706;-57
2024/03/14 00:25:26;;;;;;;38.80;30.20;;;;;22.10;100428.00;;;;2067997;28;20272;-58
2024/03/14 00:26:30;;;;;;;41.08;28.38;;;;;22.10;100435.00;;;;2060625;28;20361;-58
2024/03/14 00:27:30;;;;;;;40.53;28.75;;;;;22.20;100426.00;;;;2062329;28;20575;-58
2024/03/14 00:28:33;;;;;;;40.50;27.60;;;;;22.10;100428.00;;;;2064347;28;20280;-58
2024/03/14 00:29:34;;;;;;;41.33;28.77;;;;;22.10;100423.00;;;;2049893;28;20222;-58
2024/03/14 00:30:36;;;;;;;41.47;28.50;;;;;22.10;100419.00;;;;2055030;28;20224;-59
2024/03/14 00:31:39;;;;;;;41.45;28.67;;;;;22.10;100414.00;;;;2048610;28;20215;-62
2024/03/14 00:32:40;;;;;;;45.45;30.80;;;;;22.10;100420.00;;;;2059703;28;20585;-58
2024/03/14 00:33:43;;;;;;;39.33;27.83;;;;;22.10;100415.00;;;;2054252;28;20238;-58
2024/03/14 00:34:43;;;;;;;46.47;29.60;;;;;22.10;100418.00;;;;2048351;28;20366;-58
2024/03/14 00:35:43;;;;;;;41.87;27.70;;;;;22.10;100411.00;;;;2056075;28;20215;-58
2024/03/14 00:36:44;;;;;;;35.73;26.43;;;;;22.10;100422.00;;;;2065568;28;20307;-58
2024/03/14 00:37:44;;;;;;;35.43;26.30;;;;;22.10;100416.00;;;;2069769;28;20218;-58
2024/03/14 00:38:46;;;;;;;37.00;27.43;;;;;22.10;100418.00;;;;2064416;28;20221;-58
2024/03/14 00:39:46;;;;;;;36.47;26.50;;;;;22.10;100421.00;;;;2057658;28;20226;-58
2024/03/14 00:40:47;;;;;;;34.30;25.27;;;;;22.10;100412.00;;;;2059650;28;21044;-59
2024/03/14 00:41:51;;;;;;;33.47;26.90;;;;;22.10;100416.00;;;;2057104;28;20704;-58
2024/03/14 00:42:52;;;;;;;36.78;26.20;;;;;22.00;100412.00;;;;2059332;28;20285;-59
2024/03/14 00:43:52;;;;;;;37.10;26.30;;;;;22.10;100413.00;;;;2055543;28;20210;-59
2024/03/14 00:44:53;;;;;;;33.07;24.77;;;;;22.10;100415.00;;;;2046926;28;20879;-58
2024/03/14 00:45:54;;;;;;;37.73;25.27;;;;;22.10;100457.00;;;;2051085;28;20247;-58
2024/03/14 00:46:55;;;;;;;35.53;24.60;;;;;22.10;100410.00;;;;2054102;28;20374;-58
2024/03/14 00:47:56;;;;;;;35.92;25.58;;;;;22.10;100412.00;;;;2054811;28;20240;-58
2024/03/14 00:48:56;;;;;;;34.83;24.70;;;;;22.10;100408.00;;;;2053192;28;21244;-58
2024/03/14 00:49:57;;;;;;;36.07;25.30;;;;;22.10;100436.00;;;;2041867;28;20466;-58
2024/03/14 00:50:58;;;;;;;35.75;26.55;;;;;22.00;100413.00;;;;2053664;28;20298;-57
2024/03/14 00:51:59;;;;;;;33.08;24.27;;;;;22.10;100414.00;;;;2068717;28;20775;-58
2024/03/14 00:53:02;;;;;;;33.63;24.67;;;;;22.10;100412.00;;;;2071358;28;20703;-58
2024/03/14 00:54:04;;;;;;;31.58;24.00;;;;;22.10;100410.00;;;;2067767;28;20234;-58
2024/03/14 00:55:09;;;;;;;32.28;24.10;;;;;22.10;100408.00;;;;2043575;28;20254;-58
2024/03/14 00:56:11;;;;;;;34.83;24.25;;;;;22.10;100408.00;;;;2052220;28;20278;-59
2024/03/14 00:57:11;;;;;;;31.90;22.45;;;;;22.10;100417.00;;;;2055893;28;20269;-59
2024/03/14 00:58:12;;;;;;;31.80;23.57;;;;;22.00;100410.00;;;;2052858;28;20212;-58
2024/03/14 00:59:16;;;;;;;33.13;23.33;;;;;22.00;100410.00;;;;2051704;28;20294;-62
2024/03/14 01:00:17;;;;;;;33.15;23.55;;;;;22.10;100438.00;;;;2052632;28;20243;-57
2024/03/14 01:01:18;;;;;;;33.88;23.73;;;;;22.00;100404.00;;;;2045048;28;20264;-58
2024/03/14 01:02:19;;;;;;;30.60;23.97;;;;;22.00;100405.00;;;;2050541;28;20220;-58
2024/03/14 01:03:19;;;;;;;31.75;22.05;;;;;22.00;100399.00;;;;2055305;28;20583;-58
2024/03/14 01:04:21;;;;;;;29.97;21.93;;;;;22.00;100404.00;;;;2043860;28;20215;-59
2024/03/14 01:05:21;;;;;;;34.70;24.43;;;;;22.00;100396.00;;;;2053342;28;20470;-57
2024/03/14 01:06:21;;;;;;;29.20;21.27;;;;;22.00;100389.00;;;;2052501;28;20215;-57
2024/03/14 01:07:24;;;;;;;30.73;21.40;;;;;22.00;100392.00;;;;2052127;28;20215;-58
2024/03/14 01:08:26;;;;;;;29.85;21.48;;;;;22.00;100398.00;;;;2053732;28;20227;-59
2024/03/14 01:09:27;;;;;;;33.83;23.63;;;;;22.00;100394.00;;;;2047664;28;20223;-58
2024/03/14 01:10:28;;;;;;;29.33;20.67;;;;;22.00;100394.00;;;;2053082;28;20627;-57
2024/03/14 01:11:28;;;;;;;31.48;22.13;;;;;21.20;100399.00;;;;2053028;28;20274;-58
2024/03/14 01:12:29;;;;;;;30.23;21.70;;;;;21.50;100399.00;;;;2053978;28;20226;-56
2024/03/14 01:13:29;;;;;;;27.00;19.50;;;;;22.00;100397.00;;;;2060051;28;20293;-56
2024/03/14 01:14:30;;;;;;;31.87;22.90;;;;;21.60;100391.00;;;;2043258;28;20215;-56
2024/03/14 01:15:30;;;;;;;29.50;21.33;;;;;22.00;100395.00;;;;2052672;28;20219;-58
2024/03/14 01:16:30;;;;;;;28.73;20.60;;;;;22.00;100398.00;;;;2053662;28;20238;-58
2024/03/14 01:17:31;;;;;;;26.87;20.10;;;;;22.00;100397.00;;;;2054457;28;20222;-58
2024/03/14 01:18:31;;;;;;;28.20;21.43;;;;;22.00;100411.00;;;;2057933;28;20286;-59
2024/03/14 01:19:32;;;;;;;29.40;21.73;;;;;22.00;100425.00;;;;2052258;28;20710;-59
2024/03/14 01:20:32;;;;;;;26.10;19.30;;;;;22.00;100398.00;;;;2059251;28;20891;-59
2024/03/14 01:21:38;;;;;;;29.87;20.43;;;;;22.00;100399.00;;;;2054914;28;20307;-59
2024/03/14 01:22:39;;;;;;;24.23;18.05;;;;;22.00;100389.00;;;;2061079;28;20237;-58
2024/03/14 01:23:39;;;;;;;29.07;20.10;;;;;22.00;100391.00;;;;2061518;28;20218;-59
2024/03/14 01:24:40;;;;;;;28.10;20.55;;;;;22.00;100390.00;;;;2057835;28;20678;-58
2024/03/14 01:25:40;;;;;;;27.67;20.10;;;;;22.00;100384.00;;;;2060178;28;20219;-60
2024/03/14 01:26:41;;;;;;;28.60;19.83;;;;;22.00;100392.00;;;;2060555;28;20215;-58
2024/03/14 01:27:42;;;;;;;28.52;20.45;;;;;21.90;100219.00;;;;2061432;28;20215;-58
2024/03/14 01:28:42;;;;;;;26.93;19.60;;;;;22.00;100388.00;;;;2060522;28;20237;-59
2024/03/14 01:29:42;;;;;;;29.10;20.30;;;;;21.90;100382.00;;;;2044225;28;20678;-59
2024/03/14 01:30:43;;;;;;;25.83;18.20;;;;;22.00;100391.00;;;;2057646;28;20215;-59
2024/03/14 01:31:44;;;;;;;25.93;18.90;;;;;22.00;100377.00;;;;2052972;28;20216;-58
2024/03/14 01:32:47;;;;;;;27.77;19.23;;;;;22.00;100371.00;;;;2045019;28;20227;-59
2024/03/14 01:33:47;;;;;;;25.83;18.33;;;;;21.90;100380.00;;;;2044745;28;20227;-59
2024/03/14 01:34:48;;;;;;;25.80;19.10;;;;;21.90;100383.00;;;;2044824;28;20228;-58
2024/03/14 01:35:48;;;;;;;24.10;17.70;;;;;22.00;100382.00;;;;2062068;28;20218;-59
2024/03/14 01:36:49;;;;;;;25.35;18.33;;;;;22.00;100381.00;;;;2056617;28;20218;-59
2024/03/14 01:37:50;;;;;;;24.60;18.13;;;;;22.00;100379.00;;;;2052413;28;20685;-58
2024/03/14 01:38:51;;;;;;;24.87;18.40;;;;;22.00;100381.00;;;;2051248;28;20275;-58
2024/03/14 01:39:51;;;;;;;26.08;17.88;;;;;21.90;100382.00;;;;2045612;28;20224;-58
2024/03/14 01:40:53;;;;;;;23.93;17.03;;;;;21.90;100380.00;;;;2053244;28;20211;-58
2024/03/14 01:41:54;;;;;;;23.05;16.48;;;;;21.90;100380.00;;;;2052479;28;20239;-59
2024/03/14 01:42:57;;;;;;;25.08;17.48;;;;;21.90;100368.00;;;;2052553;28;20218;-58
2024/03/14 01:44:00;;;;;;;25.42;17.00;;;;;22.00;100365.00;;;;2053259;28;20223;-58
2024/03/14 01:45:09;;;;;;;26.08;17.20;;;;;21.90;100377.00;;;;2036434;28;20220;-59
2024/03/14 01:46:09;;;;;;;28.90;17.20;;;;;21.90;100372.00;;;;2044387;28;20220;-60
2024/03/14 01:47:10;;;;;;;22.33;16.20;;;;;21.90;100366.00;;;;2045179;28;20232;-58
2024/03/14 01:48:10;;;;;;;23.47;16.20;;;;;21.90;100367.00;;;;2052090;28;20216;-58
2024/03/14 01:49:13;;;;;;;24.43;16.70;;;;;21.90;100367.00;;;;2053100;28;20462;-58
2024/03/14 01:50:14;;;;;;;23.73;15.93;;;;;21.90;100369.00;;;;2053458;28;20221;-58
2024/03/14 01:51:14;;;;;;;23.30;15.80;;;;;21.90;100371.00;;;;2053970;28;20219;-58
2024/03/14 01:52:14;;;;;;;21.23;15.43;;;;;21.90;100362.00;;;;2052959;28;20467;-58
2024/03/14 01:53:15;;;;;;;21.37;15.77;;;;;21.90;100364.00;;;;2053015;28;20215;-58
2024/03/14 01:54:16;;;;;;;22.30;15.43;;;;;21.90;100364.00;;;;2043368;28;20242;-58
2024/03/14 01:55:19;;;;;;;21.98;15.20;;;;;21.90;100364.00;;;;2051765;28;20728;-58
2024/03/14 01:56:21;;;;;;;21.70;16.13;;;;;21.90;100366.00;;;;2052558;28;20216;-59
2024/03/14 01:57:22;;;;;;;21.05;15.07;;;;;21.90;100370.00;;;;2051931;28;20207;-59
2024/03/14 01:58:25;;;;;;;22.20;16.77;;;;;21.90;100367.00;;;;2043286;28;20752;-59
2024/03/14 01:59:28;;;;;;;21.48;15.50;;;;;21.90;100368.00;;;;2034905;28;20622;-58
2024/03/14 02:00:33;;;;;;;20.08;14.70;;;;;21.90;100375.00;;;;2052136;28;20227;-59
2024/03/14 02:01:33;;;;;;;24.08;15.30;;;;;21.90;100363.00;;;;2044145;28;20227;-58
2024/03/14 02:02:35;;;;;;;21.07;14.17;;;;;21.90;100369.00;;;;2045333;28;20243;-58
2024/03/14 02:03:35;;;;;;;19.15;14.43;;;;;21.90;100363.00;;;;2046314;28;20224;-58
2024/03/14 02:04:43;;;;;;;19.47;14.37;;;;;21.90;100344.00;;;;2049369;28;20711;-58
2024/03/14 02:05:50;;;;;;;20.10;15.23;;;;;21.90;100371.00;;;;2046278;28;20749;-58
2024/03/14 02:07:08;;;;;;;23.58;16.08;;;;;21.90;100365.00;;;;2040078;28;20335;-59
2024/03/14 02:08:08;;;;;;;19.23;14.20;;;;;21.90;100368.00;;;;2046677;28;20220;-59
2024/03/14 02:09:10;;;;;;;22.10;16.10;;;;;21.90;100364.00;;;;2049249;28;20602;-59
2024/03/14 02:10:13;;;;;;;20.65;13.88;;;;;21.90;100363.00;;;;2046025;28;20227;-58
2024/03/14 02:11:13;;;;;;;23.05;14.02;;;;;21.90;100367.00;;;;2054120;28;20218;-58
2024/03/14 02:12:13;;;;;;;16.33;13.10;;;;;21.90;100370.00;;;;2056184;28;20298;-59
2024/03/14 02:13:14;;;;;;;18.90;13.93;;;;;21.90;100366.00;;;;2052343;28;20222;-58
2024/03/14 02:14:15;;;;;;;21.80;14.70;;;;;21.90;100376.00;;;;2045832;28;20254;-60
2024/03/14 02:15:15;;;;;;;19.37;13.47;;;;;21.90;100359.00;;;;2054534;28;20223;-58
2024/03/14 02:16:16;;;;;;;17.40;12.70;;;;;21.90;100364.00;;;;2051999;28;20498;-59
2024/03/14 02:17:17;;;;;;;20.00;15.00;;;;;21.90;100363.00;;;;2053750;28;20318;-58
2024/03/14 02:18:18;;;;;;;17.23;13.20;;;;;21.90;100361.00;;;;2052542;28;20215;-58
2024/03/14 02:19:18;;;;;;;18.10;13.10;;;;;21.90;100364.00;;;;2045256;28;20220;-58
2024/03/14 02:20:20;;;;;;;18.80;13.00;;;;;21.90;100359.00;;;;2053667;28;20220;-65
2024/03/14 02:21:21;;;;;;;18.95;13.75;;;;;21.90;100361.00;;;;2054025;28;20286;-60
2024/03/14 02:22:22;;;;;;;20.60;13.50;;;;;21.90;100359.00;;;;2053336;28;20235;-58
2024/03/14 02:23:22;;;;;;;17.17;13.10;;;;;21.80;100356.00;;;;2047516;28;20212;-59
2024/03/14 02:24:22;;;;;;;16.90;12.63;;;;;21.80;100352.00;;;;2035686;28;20216;-59
2024/03/14 02:25:25;;;;;;;19.13;13.20;;;;;21.80;100350.00;;;;2052964;28;20223;-58
2024/03/14 02:26:26;;;;;;;16.92;12.75;;;;;21.80;100347.00;;;;2055821;28;20216;-58
2024/03/14 02:27:27;;;;;;;18.17;14.40;;;;;21.80;100353.00;;;;2053968;28;20219;-58
2024/03/14 02:28:29;;;;;;;17.47;12.97;;;;;21.80;100350.00;;;;2054728;28;20219;-59
2024/03/14 02:29:29;;;;;;;17.48;11.85;;;;;21.80;100362.00;;;;2044382;28;20299;-58
2024/03/14 02:30:30;;;;;;;16.40;12.40;;;;;21.80;100350.00;;;;2055838;28;20220;-58
2024/03/14 02:31:30;;;;;;;16.47;12.20;;;;;21.80;100354.00;;;;2058992;28;20219;-58
2024/03/14 02:32:31;;;;;;;16.17;12.37;;;;;21.80;100354.00;;;;2056561;28;20223;-58
2024/03/14 02:33:31;;;;;;;17.00;12.00;;;;;21.80;100342.00;;;;2056178;28;20211;-58
2024/03/14 02:34:31;;;;;;;16.87;11.63;;;;;21.80;100352.00;;;;2045015;28;20316;-59
2024/03/14 02:35:32;;;;;;;16.53;12.30;;;;;21.80;100350.00;;;;2060078;28;20235;-57
2024/03/14 02:36:32;;;;;;;16.03;11.80;;;;;21.80;100353.00;;;;2052829;28;20231;-59
2024/03/14 02:37:32;;;;;;;17.93;12.70;;;;;21.80;100347.00;;;;2051446;28;20220;-59
2024/03/14 02:38:33;;;;;;;16.87;11.70;;;;;21.80;100349.00;;;;2053994;28;20246;-59
2024/03/14 02:39:34;;;;;;;16.10;11.65;;;;;21.80;100350.00;;;;2045813;28;20226;-58
2024/03/14 02:40:35;;;;;;;18.83;11.77;;;;;21.80;100345.00;;;;2056216;28;20238;-58
2024/03/14 02:41:35;;;;;;;14.60;11.03;;;;;21.80;100340.00;;;;2057960;28;20299;-58
2024/03/14 02:42:35;;;;;;;14.37;10.47;;;;;21.80;100342.00;;;;2058439;28;20214;-58
2024/03/14 02:43:36;;;;;;;15.33;11.03;;;;;21.80;100293.00;;;;2055655;28;20227;-58
2024/03/14 02:44:37;;;;;;;16.02;10.80;;;;;21.80;100336.00;;;;2046591;28;20230;-58
2024/03/14 02:45:37;;;;;;;12.90;10.00;;;;;21.80;100340.00;;;;2053613;28;20227;-59
2024/03/14 02:46:37;;;;;;;14.07;10.80;;;;;21.80;100338.00;;;;2062150;28;20292;-58
2024/03/14 02:47:38;;;;;;;15.20;11.00;;;;;21.80;100349.00;;;;2053503;28;21377;-59
2024/03/14 02:48:38;;;;;;;14.13;10.90;;;;;21.00;100341.00;;;;2063987;28;20226;-59
2024/03/14 02:49:39;;;;;;;15.00;10.87;;;;;21.80;100338.00;;;;2049527;28;20314;-59
2024/03/14 02:50:39;;;;;;;15.57;10.60;;;;;21.80;100345.00;;;;2061617;28;20238;-59
2024/03/14 02:51:39;;;;;;;16.30;11.37;;;;;21.80;100335.00;;;;2061538;28;20215;-59
2024/03/14 02:52:40;;;;;;;14.63;9.73;;;;;21.80;100338.00;;;;2059178;28;20610;-59
2024/03/14 02:53:40;;;;;;;12.80;10.23;;;;;21.80;100342.00;;;;2054939;28;20263;-59
2024/03/14 02:54:40;;;;;;;15.80;10.37;;;;;21.80;100342.00;;;;2052739;28;20226;-58
2024/03/14 02:55:44;;;;;;;14.30;10.30;;;;;20.90;100335.00;;;;2054491;28;20251;-59
2024/03/14 02:56:49;;;;;;;14.93;9.88;;;;;21.80;100336.00;;;;2053961;28;20999;-58
2024/03/14 02:57:50;;;;;;;13.77;10.07;;;;;21.80;100334.00;;;;2050710;28;20638;-58
2024/03/14 02:58:50;;;;;;;16.13;10.97;;;;;21.70;100355.00;;;;2049203;28;20249;-58
2024/03/14 02:59:52;;;;;;;15.00;10.13;;;;;21.80;100397.00;;;;2050111;28;20458;-58
2024/03/14 03:00:53;;;;;;;13.88;9.75;;;;;21.70;100332.00;;;;2052562;28;20266;-58
2024/03/14 03:01:54;;;;;;;12.05;9.10;;;;;21.80;100335.00;;;;2052936;28;20696;-58
2024/03/14 03:02:55;;;;;;;11.70;9.00;;;;;21.80;100335.00;;;;2051924;28;20216;-59
2024/03/14 03:03:55;;;;;;;15.50;10.00;;;;;21.80;100333.00;;;;2051503;28;20305;-58
2024/03/14 03:04:56;;;;;;;12.90;10.10;;;;;21.80;100353.00;;;;2045885;28;20230;-59
2024/03/14 03:05:57;;;;;;;12.52;8.75;;;;;21.80;100323.00;;;;2058163;28;20816;-58
2024/03/14 03:06:58;;;;;;;15.20;9.40;;;;;21.80;100331.00;;;;2059043;28;20219;-58
2024/03/14 03:07:59;;;;;;;12.50;9.15;;;;;21.80;100321.00;;;;2052822;28;20273;-58
2024/03/14 03:08:59;;;;;;;12.70;8.90;;;;;21.70;100319.00;;;;2053185;28;20674;-58
2024/03/14 03:10:00;;;;;;;16.87;10.03;;;;;21.70;100334.00;;;;2042032;28;20459;-59
2024/03/14 03:11:00;;;;;;;12.83;8.97;;;;;21.80;100322.00;;;;2053106;28;20227;-59
2024/03/14 03:12:02;;;;;;;11.60;8.30;;;;;21.80;100323.00;;;;2056221;28;20227;-59
2024/03/14 03:13:05;;;;;;;13.02;8.93;;;;;21.80;100330.00;;;;2051883;28;20267;-58
2024/03/14 03:14:05;;;;;;;12.18;8.95;;;;;21.80;100321.00;;;;2052685;28;20219;-58
2024/03/14 03:15:07;;;;;;;11.77;8.90;;;;;21.70;100316.00;;;;2041687;28;20204;-59
2024/03/14 03:16:08;;;;;;;11.32;8.73;;;;;21.70;100330.00;;;;2051350;28;20226;-60
2024/03/14 03:17:09;;;;;;;11.70;8.80;;;;;21.70;100311.00;;;;2052774;28;20828;-59
2024/03/14 03:18:10;;;;;;;11.97;8.47;;;;;21.70;100325.00;;;;2052206;28;21112;-59
2024/03/14 03:19:10;;;;;;;10.80;7.60;;;;;21.80;100331.00;;;;2048893;28;20301;-59
2024/03/14 03:20:11;;;;;;;12.10;9.00;;;;;21.70;100320.00;;;;2031095;28;20492;-59
2024/03/14 03:21:11;;;;;;;12.90;8.50;;;;;21.70;100315.00;;;;2048132;28;20279;-58
2024/03/14 03:22:11;;;;;;;16.13;10.10;;;;;21.70;100312.00;;;;2052786;28;20207;-59
2024/03/14 03:23:12;;;;;;;12.70;8.93;;;;;21.70;100318.00;;;;2056769;28;20206;-58
2024/03/14 03:24:13;;;;;;;11.20;8.17;;;;;21.70;100313.00;;;;2048940;28;20314;-59
2024/03/14 03:25:14;;;;;;;13.40;8.80;;;;;21.70;100322.00;;;;2051641;28;20211;-58
2024/03/14 03:26:14;;;;;;;12.20;9.10;;;;;21.70;100315.00;;;;2048522;28;20629;-62
2024/03/14 03:27:15;;;;;;;10.43;8.50;;;;;21.70;100372.00;;;;2053278;28;20215;-59
2024/03/14 03:28:15;;;;;;;12.10;8.10;;;;;21.80;100319.00;;;;2067650;28;20595;-59
2024/03/14 03:29:16;;;;;;;11.40;8.07;;;;;21.80;100316.00;;;;2058119;28;20238;-59
2024/03/14 03:30:17;;;;;;;10.77;7.45;;;;;21.70;100321.00;;;;2060105;28;20225;-59
2024/03/14 03:31:17;;;;;;;10.90;7.90;;;;;21.70;100316.00;;;;2060107;28;20525;-60
2024/03/14 03:32:19;;;;;;;10.57;8.23;;;;;21.70;100306.00;;;;2058726;28;20253;-59
2024/03/14 03:33:20;;;;;;;9.90;7.35;;;;;21.70;100314.00;;;;2050003;28;20303;-58
2024/03/14 03:34:23;;;;;;;10.20;7.60;;;;;21.70;100319.00;;;;2040596;28;20338;-58
2024/03/14 03:35:24;;;;;;;11.93;8.10;;;;;21.70;100311.00;;;;2064793;28;20691;-58
2024/03/14 03:36:26;;;;;;;9.50;6.70;;;;;21.70;100310.00;;;;2053031;28;20211;-58
2024/03/14 03:37:28;;;;;;;11.57;8.10;;;;;20.70;100314.00;;;;2054618;28;21003;-57
2024/03/14 03:38:29;;;;;;;11.52;8.23;;;;;21.70;100307.00;;;;2046726;28;20310;-58
2024/03/14 03:39:31;;;;;;;9.83;7.13;;;;;21.70;100312.00;;;;2040662;28;20223;-58
2024/03/14 03:40:35;;;;;;;10.27;7.65;;;;;21.70;100310.00;;;;2056905;28;20294;-58
2024/03/14 03:41:37;;;;;;;10.25;7.13;;;;;21.70;100311.00;;;;2052268;28;20738;-58
2024/03/14 03:42:37;;;;;;;10.70;7.22;;;;;21.70;100305.00;;;;2049223;28;20231;-58
2024/03/14 03:43:38;;;;;;;10.93;7.27;;;;;21.70;100308.00;;;;2054585;28;20231;-57
2024/03/14 03:44:40;;;;;;;9.70;7.20;;;;;21.70;100305.00;;;;2047342;28;20250;-57
2024/03/14 03:45:41;;;;;;;11.55;7.90;;;;;21.70;100310.00;;;;2053771;28;20235;-59
2024/03/14 03:46:44;;;;;;;9.40;7.03;;;;;21.70;100307.00;;;;2041307;28;20212;-59
2024/03/14 03:47:45;;;;;;;9.27;6.75;;;;;21.70;100304.00;;;;2038664;28;20225;-57
2024/03/14 03:48:46;;;;;;;12.32;7.63;;;;;21.70;100306.00;;;;2046677;28;20216;-57
2024/03/14 03:49:46;;;;;;;11.10;7.83;;;;;21.70;100298.00;;;;2045137;28;20227;-58
2024/03/14 03:50:48;;;;;;;9.23;6.43;;;;;21.70;100288.00;;;;2054293;28;20226;-57
2024/03/14 03:51:49;;;;;;;9.73;7.22;;;;;21.70;100299.00;;;;2059529;28;20234;-58
2024/03/14 03:52:50;;;;;;;10.83;6.73;;;;;21.70;100293.00;;;;2056682;28;20220;-57
2024/03/14 03:53:52;;;;;;;10.70;6.30;;;;;21.70;100307.00;;;;2053149;28;20307;-57
2024/03/14 03:54:53;;;;;;;10.35;6.05;;;;;21.70;100291.00;;;;2036196;28;20240;-57
2024/03/14 03:55:53;;;;;;;9.88;6.30;;;;;21.70;100301.00;;;;2043660;28;20224;-57
2024/03/14 03:56:54;;;;;;;8.87;6.33;;;;;21.70;100301.00;;;;2053998;28;20215;-57
2024/03/14 03:57:56;;;;;;;9.83;6.90;;;;;21.70;100299.00;;;;2047389;28;20240;-58
2024/03/14 03:58:58;;;;;;;8.35;6.30;;;;;21.70;100300.00;;;;2045945;28;21239;-58
2024/03/14 03:59:59;;;;;;;8.70;6.35;;;;;21.70;100345.00;;;;2040101;28;20611;-58
2024/03/14 04:01:06;;;;;;;9.88;6.95;;;;;21.70;100345.00;;;;2049919;28;20665;-59
2024/03/14 04:02:09;;;;;;;9.02;6.20;;;;;21.70;100121.00;;;;2052082;28;20220;-58
2024/03/14 04:03:11;;;;;;;7.30;5.50;;;;;21.70;100296.00;;;;2052787;28;20212;-63
2024/03/14 04:04:12;;;;;;;7.82;5.95;;;;;21.70;100294.00;;;;2054595;28;20290;-58
2024/03/14 04:05:13;;;;;;;10.55;6.88;;;;;21.70;100294.00;;;;2046772;28;20212;-58
2024/03/14 04:06:15;;;;;;;9.47;6.37;;;;;21.70;100297.00;;;;2052931;28;20207;-58
2024/03/14 04:07:16;;;;;;;8.38;5.97;;;;;21.70;100288.00;;;;2056858;28;20321;-58
2024/03/14 04:08:17;;;;;;;9.70;6.68;;;;;21.70;100307.00;;;;2056710;28;20288;-58
2024/03/14 04:09:17;;;;;;;8.77;6.03;;;;;21.70;100289.00;;;;2044626;28;20295;-58
2024/03/14 04:10:17;;;;;;;10.20;5.63;;;;;21.70;100281.00;;;;2053159;28;20550;-58
2024/03/14 04:11:18;;;;;;;8.00;5.57;;;;;21.70;100284.00;;;;2058334;28;20601;-58
2024/03/14 04:12:18;;;;;;;8.87;5.97;;;;;21.60;100288.00;;;;2060614;28;20688;-58
2024/03/14 04:13:19;;;;;;;8.93;5.63;;;;;21.70;100288.00;;;;2054972;28;20455;-58
2024/03/14 04:14:19;;;;;;;7.93;5.63;;;;;21.60;100285.00;;;;2047905;28;20250;-58
2024/03/14 04:15:23;;;;;;;8.30;5.87;;;;;21.60;100286.00;;;;2066446;28;20262;-58
2024/03/14 04:16:24;;;;;;;8.27;6.10;;;;;21.60;100289.00;;;;2063392;28;20301;-58
2024/03/14 04:17:24;;;;;;;9.53;5.83;;;;;21.70;100285.00;;;;2053345;28;20254;-58
2024/03/14 04:18:28;;;;;;;8.53;5.67;;;;;21.70;100279.00;;;;2054421;28;20216;-58
2024/03/14 04:19:29;;;;;;;7.82;5.40;;;;;21.70;100286.00;;;;2045014;28;20251;-58
2024/03/14 04:20:30;;;;;;;8.33;5.87;;;;;21.60;100284.00;;;;2054255;28;20227;-57
2024/03/14 04:21:30;;;;;;;7.63;5.10;;;;;21.60;100290.00;;;;2050038;28;20227;-59
2024/03/14 04:22:30;;;;;;;7.83;5.50;;;;;21.60;100278.00;;;;2057384;28;20219;-58
2024/03/14 04:23:31;;;;;;;8.70;4.97;;;;;21.60;100283.00;;;;2056677;28;20222;-58
2024/03/14 04:24:35;;;;;;;7.53;5.33;;;;;21.60;100281.00;;;;2043688;28;20409;-58
2024/03/14 04:25:36;;;;;;;8.00;5.40;;;;;21.70;100284.00;;;;2051085;28;20707;-58
2024/03/14 04:26:38;;;;;;;7.72;5.20;;;;;21.70;100284.00;;;;2050506;28;20274;-58
2024/03/14 04:27:40;;;;;;;7.35;5.20;;;;;21.60;100288.00;;;;2053068;28;20222;-57
2024/03/14 04:28:40;;;;;;;7.18;4.85;;;;;21.60;100278.00;;;;2053415;28;20223;-57
2024/03/14 04:29:40;;;;;;;7.07;4.90;;;;;21.60;100283.00;;;;2044601;28;20262;-58
2024/03/14 04:30:41;;;;;;;7.50;4.77;;;;;21.70;100280.00;;;;2054271;28;20233;-57
2024/03/14 04:31:42;;;;;;;6.77;4.90;;;;;21.60;100282.00;;;;2053670;28;20219;-58
2024/03/14 04:32:44;;;;;;;6.70;4.80;;;;;21.60;100382.00;;;;2052770;28;20232;-60
2024/03/14 04:33:44;;;;;;;7.32;5.40;;;;;21.60;100286.00;;;;2054431;28;21005;-57
2024/03/14 04:34:45;;;;;;;6.67;4.93;;;;;21.60;100278.00;;;;2043922;28;20231;-59
2024/03/14 04:35:45;;;;;;;7.40;5.10;;;;;21.60;100288.00;;;;2060131;28;20238;-58
2024/03/14 04:36:46;;;;;;;7.37;4.83;;;;;21.60;100286.00;;;;2057764;28;20226;-58
2024/03/14 04:37:49;;;;;;;8.23;5.10;;;;;21.60;100284.00;;;;2053743;28;20677;-58
2024/03/14 04:38:49;;;;;;;7.35;4.90;;;;;21.60;100286.00;;;;2052332;28;20467;-58
2024/03/14 04:39:51;;;;;;;6.83;5.00;;;;;21.70;100280.00;;;;2043796;28;20219;-57
2024/03/14 04:40:51;;;;;;;7.40;4.90;;;;;21.60;100281.00;;;;2061084;28;20207;-58
2024/03/14 04:41:52;;;;;;;6.53;4.63;;;;;21.60;100288.00;;;;2057132;28;20290;-58
2024/03/14 04:42:53;;;;;;;6.10;4.70;;;;;21.60;100290.00;;;;2053662;28;20211;-57
2024/03/14 04:43:53;;;;;;;6.23;4.27;;;;;21.60;100282.00;;;;2056465;28;20200;-59
2024/03/14 04:44:54;;;;;;;8.30;4.80;;;;;21.60;100283.00;;;;2044972;28;20223;-59
2024/03/14 04:45:55;;;;;;;8.80;4.20;;;;;21.60;100282.00;;;;2052754;28;20782;-58
2024/03/14 04:46:55;;;;;;;7.97;4.32;;;;;21.60;100285.00;;;;2061465;28;20859;-57
2024/03/14 04:47:55;;;;;;;6.47;4.30;;;;;21.60;100288.00;;;;2055528;28;20219;-57
2024/03/14 04:48:56;;;;;;;7.20;4.30;;;;;21.60;100283.00;;;;2056017;28;20226;-57
2024/03/14 04:49:56;;;;;;;7.20;4.93;;;;;21.60;100294.00;;;;2043703;28;20231;-58
2024/03/14 04:50:57;;;;;;;7.57;4.70;;;;;21.60;100290.00;;;;2053831;28;20206;-58
2024/03/14 04:51:57;;;;;;;7.80;4.90;;;;;21.60;100280.00;;;;2054191;28;20215;-57
2024/03/14 04:52:58;;;;;;;8.90;4.83;;;;;21.60;100286.00;;;;2054542;28;20222;-58
2024/03/14 04:53:58;;;;;;;6.23;4.03;;;;;21.60;100293.00;;;;2053044;28;20278;-58
2024/03/14 04:54:58;;;;;;;7.33;4.23;;;;;21.60;100287.00;;;;2044493;28;20232;-58
2024/03/14 04:55:59;;;;;;;7.43;4.53;;;;;21.60;100284.00;;;;2055282;28;20218;-58
2024/03/14 04:57:02;;;;;;;6.20;3.77;;;;;21.60;100283.00;;;;2053870;28;20226;-58
2024/03/14 04:58:03;;;;;;;5.95;4.55;;;;;21.60;100280.00;;;;2052939;28;20219;-58